createdAt,value
2019-05-25T18:05:00.977Z,0.90
2019-05-25T18:07:36.349Z,1.07
2019-05-25T18:10:08.838Z,1.30
2019-05-25T18:12:37.978Z,1.35
2019-05-25T18:15:09.512Z,1.30
2019-05-25T18:17:51.122Z,1.27
2019-05-25T18:20:20.688Z,1.67
2019-05-25T18:25:17.350Z,1.20
2019-05-25T18:27:45.958Z,0.93
2019-05-25T18:30:27.475Z,1.30
2019-05-25T18:32:57.158Z,1.25
2019-05-25T18:35:26.388Z,1.25
2019-05-25T18:37:55.131Z,1.47
2019-05-25T18:40:24.578Z,1.30
2019-05-25T18:42:54.037Z,1.07
2019-05-25T18:45:22.922Z,1.35
2019-05-25T18:47:51.849Z,1.45
2019-05-25T18:50:21.508Z,1.22
2019-05-25T18:52:50.907Z,0.95
2019-05-25T18:55:21.547Z,0.93
2019-05-25T18:57:51.122Z,1.15
2019-05-25T19:02:48.926Z,1.37
2019-05-25T19:07:45.990Z,2.75
2019-05-25T19:12:43.052Z,1.67
2019-05-25T19:17:41.125Z,1.30
2019-05-25T19:22:45.557Z,1.60
2019-05-25T19:25:14.556Z,1.37
2019-05-25T19:27:44.080Z,1.70
2019-05-25T19:32:42.373Z,1.50
2019-05-25T19:35:12.294Z,1.37
2019-05-25T19:37:42.688Z,1.22
2019-05-25T19:40:13.040Z,1.40
2019-05-25T19:42:54.007Z,1.80
2019-05-25T19:45:38.982Z,1.22
2019-05-25T19:48:08.114Z,1.02
2019-05-25T19:50:36.928Z,1.30
2019-05-25T19:53:06.035Z,1.25
2019-05-25T19:55:34.598Z,1.05
2019-05-25T19:58:03.805Z,1.20
2019-05-25T20:00:32.609Z,1.13
2019-05-25T20:03:01.442Z,1.02
2019-05-25T20:05:30.220Z,0.85
2019-05-25T20:08:19.480Z,1.00
2019-05-25T20:13:24.553Z,0.95
2019-05-25T20:16:09.015Z,1.00
2019-05-25T20:18:38.180Z,1.02
2019-05-25T20:21:12.130Z,1.32
2019-05-25T20:23:41.234Z,0.90
2019-05-25T20:26:09.993Z,1.10
2019-05-25T20:31:13.638Z,1.10
2019-05-25T20:33:42.471Z,0.90
2019-05-25T20:36:16.859Z,1.22
2019-05-25T20:38:46.014Z,1.20
2019-05-25T20:41:28.753Z,1.20
2019-05-25T20:43:45.956Z,1.10
2019-05-25T20:46:15.113Z,1.00
2019-05-25T20:51:12.563Z,0.95
2019-05-25T20:53:42.006Z,1.10
2019-05-25T20:56:11.603Z,0.90
2019-05-25T21:01:08.668Z,0.80
2019-05-25T21:03:37.657Z,0.93
2019-05-25T21:06:06.651Z,0.90
2019-05-25T21:08:35.641Z,0.88
2019-05-25T21:11:04.514Z,0.85
2019-05-25T21:13:33.632Z,0.80
2019-05-25T21:18:31.306Z,1.07
2019-05-25T21:21:02.274Z,0.93
2019-05-25T21:23:32.091Z,1.10
2019-05-25T21:26:01.521Z,0.60
2019-05-25T21:28:30.665Z,1.00
2019-05-25T21:33:29.756Z,0.98
2019-05-25T21:36:08.157Z,0.90
2019-05-25T21:38:30.037Z,1.30
2019-05-25T21:40:59.179Z,0.83
2019-05-25T21:43:28.754Z,1.10
2019-05-25T21:45:57.902Z,10.72
2019-05-25T21:48:26.929Z,16.00
2019-05-25T22:04:22.366Z,13.63
2019-05-25T22:06:52.659Z,13.13
2019-05-25T22:09:22.863Z,13.80
2019-05-25T22:11:54.580Z,11.80
2019-05-25T22:14:29.072Z,12.13
2019-05-25T22:16:59.137Z,12.13
2019-05-25T22:19:29.143Z,12.50
2019-05-25T22:21:59.193Z,11.55
2019-05-25T22:24:29.306Z,12.63
2019-05-25T22:26:59.292Z,11.97
2019-05-25T22:29:29.364Z,11.50
2019-05-25T22:32:03.690Z,10.20
2019-05-25T22:34:37.202Z,11.55
2019-05-25T22:37:02.909Z,9.30
2019-05-25T22:39:32.926Z,9.35
2019-05-25T22:42:02.912Z,9.40
2019-05-25T22:44:33.466Z,8.80
2019-05-25T22:47:03.846Z,8.53
2019-05-25T22:49:33.995Z,7.53
2019-05-25T22:52:04.008Z,3.50
2019-05-25T22:54:34.023Z,2.45
2019-05-25T22:57:05.150Z,1.87
2019-05-25T22:59:38.406Z,1.47
2019-05-25T23:02:08.583Z,1.27
2019-05-25T23:04:39.472Z,1.10
2019-05-25T23:07:09.427Z,1.20
2019-05-25T23:09:41.700Z,1.47
2019-05-25T23:12:23.345Z,1.20
2019-05-25T23:14:57.558Z,1.40
2019-05-25T23:17:27.527Z,1.52
2019-05-25T23:19:57.521Z,1.37
2019-05-25T23:22:27.541Z,1.30
2019-05-25T23:24:57.715Z,1.47
2019-05-25T23:27:27.770Z,1.20
2019-05-25T23:29:57.748Z,1.42
2019-05-25T23:32:27.838Z,1.15
2019-05-25T23:34:57.805Z,1.47
2019-05-25T23:40:25.445Z,1.20
2019-05-25T23:42:55.833Z,1.37
2019-05-25T23:45:25.803Z,1.15
2019-05-25T23:47:55.867Z,1.20
2019-05-25T23:50:25.909Z,1.92
2019-05-25T23:52:55.879Z,1.17
2019-05-25T23:55:26.184Z,1.32
2019-05-25T23:57:56.345Z,1.05
